Time;durP1;ratioP1;P1;durP2;ratioP2;P2;SDS_P1;SDS_P2;PMS_P1;PMS_P2;Temp;Humidity;BMP_temperature;BMP_pressure;BME280_temperature;BME280_humidity;BME280_pressure;Samples;Min_cycle;Max_cycle;Signal;HPM_P1;HPM_P2
2021/04/27 00:01:26;;;;;;;2.13;1.10;;;2.90;61.40;;;;;;5001567;28;20463;-66
2021/04/27 00:03:52;;;;;;;3.10;1.02;;;2.80;61.60;;;;;;4995645;28;20709;-66
2021/04/27 00:06:17;;;;;;;2.35;1.02;;;2.80;61.80;;;;;;4991620;28;20088;-66
2021/04/27 00:08:43;;;;;;;1.90;1.10;;;2.80;61.50;;;;;;4991420;28;20018;-66
2021/04/27 00:11:09;;;;;;;1.25;0.85;;;2.80;62.40;;;;;;4990337;28;20174;-66
2021/04/27 00:13:36;;;;;;;1.85;1.00;;;2.70;61.90;;;;;;4986956;28;20026;-66
2021/04/27 00:16:02;;;;;;;2.03;0.95;;;2.70;61.80;;;;;;4995682;28;20163;-66
2021/04/27 00:18:28;;;;;;;2.47;1.13;;;2.70;62.50;;;;;;4997048;28;20478;-66
2021/04/27 00:20:54;;;;;;;2.45;1.00;;;2.70;62.90;;;;;;4992532;28;20054;-66
2021/04/27 00:23:20;;;;;;;3.38;0.90;;;2.60;63.20;;;;;;4993189;28;20233;-66
2021/04/27 00:25:46;;;;;;;1.55;0.98;;;2.60;63.00;;;;;;4995574;28;20121;-66
2021/04/27 00:28:11;;;;;;;4.25;1.15;;;2.60;63.30;;;;;;4998567;28;20439;-66
2021/04/27 00:30:37;;;;;;;3.13;1.23;;;2.50;63.20;;;;;;4998470;28;20026;-66
2021/04/27 00:33:03;;;;;;;1.98;1.20;;;2.60;63.00;;;;;;5001075;28;20029;-66
2021/04/27 00:35:31;;;;;;;3.50;1.02;;;2.60;62.40;;;;;;5000294;28;20030;-66
2021/04/27 00:37:57;;;;;;;2.08;1.10;;;2.70;62.70;;;;;;4999411;28;20084;-66
2021/04/27 00:40:23;;;;;;;1.85;1.00;;;2.70;63.50;;;;;;4996932;28;20083;-66
2021/04/27 00:42:49;;;;;;;4.97;1.25;;;2.80;62.60;;;;;;4998652;28;20815;-66
2021/04/27 00:45:21;;;;;;;2.67;1.23;;;2.80;62.50;;;;;;5000749;28;20041;-66
2021/04/27 00:47:47;;;;;;;2.70;1.02;;;2.80;62.10;;;;;;4994750;28;20534;-66
2021/04/27 00:50:16;;;;;;;1.80;1.10;;;2.90;62.50;;;;;;4998323;28;20093;-66
2021/04/27 00:52:43;;;;;;;3.85;1.20;;;2.90;62.50;;;;;;5003313;28;20022;-66
2021/04/27 00:55:10;;;;;;;1.38;0.90;;;2.90;62.70;;;;;;4998850;28;20029;-66
2021/04/27 00:57:36;;;;;;;3.83;1.20;;;2.90;62.50;;;;;;4997503;28;20031;-66
2021/04/27 01:00:07;;;;;;;3.17;1.08;;;2.90;62.80;;;;;;4997497;28;20084;-66
2021/04/27 01:02:33;;;;;;;1.90;1.00;;;2.90;62.80;;;;;;5004920;28;20483;-66
2021/04/27 01:05:00;;;;;;;2.88;1.13;;;2.90;62.50;;;;;;5013200;28;20410;-66
2021/04/27 01:07:33;;;;;;;2.88;1.10;;;2.80;62.90;;;;;;5009312;28;20129;-66
2021/04/27 01:10:01;;;;;;;1.75;1.10;;;2.80;62.60;;;;;;5006266;28;20026;-66
2021/04/27 01:12:33;;;;;;;1.85;0.80;;;2.80;62.70;;;;;;5007190;28;20391;-66
2021/04/27 01:15:06;;;;;;;2.05;1.20;;;2.80;62.50;;;;;;5002262;28;20045;-66
2021/04/27 01:17:32;;;;;;;4.43;1.00;;;2.70;62.80;;;;;;5008674;28;20105;-66
2021/04/27 01:20:19;;;;;;;5.68;1.08;;;2.70;64.00;;;;;;4998888;28;20607;-66
2021/04/27 01:23:11;;;;;;;2.22;0.98;;;2.60;64.10;;;;;;5003117;28;20060;-66
2021/04/27 01:25:41;;;;;;;2.60;1.02;;;2.60;64.00;;;;;;4992549;28;20483;-66
2021/04/27 01:28:08;;;;;;;2.38;0.98;;;2.40;64.40;;;;;;5003487;28;20026;-66
2021/04/27 01:30:37;;;;;;;2.67;0.90;;;2.50;64.60;;;;;;4998939;28;20030;-66
2021/04/27 01:33:06;;;;;;;1.95;1.00;;;2.40;65.20;;;;;;5003398;28;20053;-66
2021/04/27 01:35:32;;;;;;;3.83;0.98;;;2.40;64.70;;;;;;4999883;28;20034;-66
2021/04/27 01:38:00;;;;;;;2.83;1.05;;;2.40;64.70;;;;;;5000398;28;20070;-67
2021/04/27 01:40:27;;;;;;;4.28;1.30;;;2.50;64.80;;;;;;5004376;28;20034;-66
2021/04/27 01:42:54;;;;;;;1.50;0.85;;;2.40;65.20;;;;;;4999859;28;20030;-66
2021/04/27 01:45:19;;;;;;;1.40;1.00;;;2.40;64.90;;;;;;5001883;28;20037;-66
2021/04/27 01:47:45;;;;;;;4.45;1.30;;;2.40;64.90;;;;;;4997977;28;20029;-66
2021/04/27 01:50:11;;;;;;;2.00;1.00;;;2.40;64.80;;;;;;4991612;28;20129;-66
2021/04/27 01:52:37;;;;;;;2.05;0.90;;;2.40;65.40;;;;;;5002175;28;20048;-66
2021/04/27 01:55:06;;;;;;;1.55;0.93;;;2.40;65.20;;;;;;5008694;28;20076;-66
2021/04/27 01:57:32;;;;;;;2.08;1.10;;;2.40;65.50;;;;;;5010790;28;20026;-66
2021/04/27 01:59:58;;;;;;;1.83;0.93;;;2.20;65.60;;;;;;5004624;28;20813;-66
2021/04/27 02:02:23;;;;;;;2.42;1.13;;;2.20;65.90;;;;;;5001807;28;20057;-66
2021/04/27 02:04:49;;;;;;;1.80;1.08;;;2.10;65.90;;;;;;5001018;28;20444;-66
2021/04/27 02:07:15;;;;;;;6.35;0.93;;;2.10;66.20;;;;;;5018033;28;20026;-66
2021/04/27 02:09:41;;;;;;;2.30;1.10;;;2.10;66.60;;;;;;5009146;28;20061;-66
2021/04/27 02:12:07;;;;;;;2.33;1.20;;;2.10;66.70;;;;;;4999797;28;20022;-66
2021/04/27 02:14:33;;;;;;;3.20;1.10;;;2.00;67.10;;;;;;5000039;28;20065;-66
2021/04/27 02:17:14;;;;;;;2.42;1.10;;;1.90;67.30;;;;;;4995416;28;20482;-66
2021/04/27 02:19:40;;;;;;;2.85;1.10;;;1.90;67.20;;;;;;5003738;28;20430;-66
2021/04/27 02:22:08;;;;;;;3.72;1.10;;;1.90;67.60;;;;;;4998467;28;20022;-66
2021/04/27 02:24:37;;;;;;;2.00;0.88;;;1.90;67.70;;;;;;5005083;28;20082;-66
2021/04/27 02:27:03;;;;;;;4.15;1.42;;;1.80;67.80;;;;;;4995989;28;20113;-66
2021/04/27 02:29:30;;;;;;;2.08;1.00;;;1.70;68.30;;;;;;4995467;28;20746;-66
2021/04/27 02:32:00;;;;;;;3.92;1.15;;;1.70;68.60;;;;;;5005262;28;20082;-66
2021/04/27 02:34:26;;;;;;;5.65;1.17;;;1.80;68.00;;;;;;5003814;28;20503;-66
2021/04/27 02:36:54;;;;;;;2.97;1.08;;;1.80;68.20;;;;;;5002096;28;20029;-66
2021/04/27 02:39:20;;;;;;;1.45;1.00;;;1.70;68.20;;;;;;4995498;28;20058;-66
2021/04/27 02:41:47;;;;;;;5.82;1.40;;;1.70;68.90;;;;;;5001847;28;20022;-66
2021/04/27 02:44:13;;;;;;;4.38;1.20;;;1.80;68.30;;;;;;5003215;28;20514;-66
2021/04/27 02:46:41;;;;;;;4.03;1.23;;;1.70;68.40;;;;;;4998062;28;20117;-65
2021/04/27 02:49:06;;;;;;;2.10;1.27;;;1.80;68.60;;;;;;5018083;28;20026;-66
2021/04/27 02:51:32;;;;;;;2.55;1.13;;;1.70;68.70;;;;;;5002537;28;20121;-66
2021/04/27 02:53:59;;;;;;;1.65;1.05;;;1.70;69.20;;;;;;4999483;28;20479;-66
2021/04/27 02:56:25;;;;;;;2.00;1.15;;;1.70;69.40;;;;;;5003339;28;20220;-66
2021/04/27 02:58:51;;;;;;;8.18;1.48;;;1.60;69.50;;;;;;5001776;28;20026;-66
2021/04/27 03:01:16;;;;;;;5.28;1.30;;;1.60;69.50;;;;;;4997779;28;20061;-66
2021/04/27 03:03:42;;;;;;;3.28;1.38;;;1.60;69.50;;;;;;4996350;28;20030;-66
2021/04/27 03:06:08;;;;;;;3.17;2.55;;;1.50;70.00;;;;;;4995563;28;20671;-66
2021/04/27 03:08:34;;;;;;;1.92;1.27;;;1.50;70.60;;;;;;5000291;28;20061;-66
2021/04/27 03:11:00;;;;;;;2.63;1.20;;;1.50;70.60;;;;;;5001010;28;20059;-65
2021/04/27 03:13:25;;;;;;;2.85;1.20;;;1.50;70.50;;;;;;4994650;28;20026;-66
2021/04/27 03:15:51;;;;;;;2.63;0.98;;;1.40;70.50;;;;;;4992063;28;20029;-66
2021/04/27 03:18:17;;;;;;;1.83;1.20;;;1.30;70.90;;;;;;5002176;28;20557;-66
2021/04/27 03:20:43;;;;;;;3.42;1.30;;;1.30;71.30;;;;;;5003099;28;20255;-68
2021/04/27 03:23:10;;;;;;;4.07;1.23;;;1.30;71.40;;;;;;4997689;28;20034;-68
2021/04/27 03:25:37;;;;;;;1.95;1.23;;;1.20;71.60;;;;;;4994271;28;20034;-68
2021/04/27 03:28:04;;;;;;;3.22;1.50;;;1.20;71.90;;;;;;5000459;28;20025;-67
2021/04/27 03:30:31;;;;;;;3.38;1.30;;;1.10;71.70;;;;;;4995942;28;20042;-68
2021/04/27 03:32:57;;;;;;;2.60;1.13;;;1.10;72.10;;;;;;4986669;28;20088;-68
2021/04/27 03:35:22;;;;;;;2.90;1.50;;;1.10;72.20;;;;;;4994237;28;20033;-68
2021/04/27 03:37:48;;;;;;;5.95;1.02;;;1.10;72.60;;;;;;4999893;28;20026;-68
2021/04/27 03:40:14;;;;;;;1.30;1.00;;;1.10;72.40;;;;;;5002258;28;20029;-67
2021/04/27 03:42:40;;;;;;;4.45;1.15;;;1.10;72.70;;;;;;4989014;28;20125;-68
2021/04/27 03:45:09;;;;;;;2.75;0.95;;;1.20;72.20;;;;;;4998397;28;20061;-67
2021/04/27 03:47:35;;;;;;;3.67;1.10;;;1.20;72.10;;;;;;4997628;28;20166;-68
2021/04/27 03:50:02;;;;;;;1.90;1.10;;;1.20;72.30;;;;;;4991791;28;20037;-67
2021/04/27 03:52:28;;;;;;;2.75;1.23;;;1.10;72.60;;;;;;4997048;28;20057;-68
2021/04/27 03:54:53;;;;;;;5.60;1.45;;;1.20;72.60;;;;;;5004993;28;20487;-68
2021/04/27 03:57:19;;;;;;;2.28;1.15;;;1.20;72.70;;;;;;5001780;28;20029;-68
2021/04/27 03:59:44;;;;;;;4.63;1.30;;;1.20;72.40;;;;;;4998264;28;20041;-68
2021/04/27 04:02:10;;;;;;;3.70;1.60;;;1.30;72.30;;;;;;4995019;28;20419;-67
2021/04/27 04:04:36;;;;;;;3.10;1.20;;;1.30;72.40;;;;;;4993223;28;20113;-68
2021/04/27 04:07:02;;;;;;;2.05;1.15;;;1.30;72.30;;;;;;4994821;28;20625;-68
2021/04/27 04:09:27;;;;;;;2.90;1.10;;;1.40;72.00;;;;;;4994539;28;20040;-67
2021/04/27 04:11:53;;;;;;;3.83;1.40;;;1.40;72.20;;;;;;4996597;28;20026;-67
2021/04/27 04:14:19;;;;;;;4.50;1.30;;;1.40;72.20;;;;;;4994165;28;20468;-67
2021/04/27 04:16:44;;;;;;;3.97;1.60;;;1.30;72.30;;;;;;4997104;28;20526;-67
2021/04/27 04:19:10;;;;;;;6.43;2.42;;;1.30;72.30;;;;;;5000914;28;20295;-67
2021/04/27 04:21:36;;;;;;;8.88;1.60;;;1.30;72.80;;;;;;4997571;28;20045;-60
2021/04/27 04:24:02;;;;;;;1.75;1.15;;;1.30;72.70;;;;;;4987976;28;20115;-62
2021/04/27 04:26:28;;;;;;;3.95;1.60;;;1.30;72.90;;;;;;4996490;28;20029;-61
2021/04/27 04:28:53;;;;;;;2.80;1.10;;;1.30;72.90;;;;;;4996978;28;20034;-62
2021/04/27 04:31:19;;;;;;;2.70;1.27;;;1.30;72.80;;;;;;4992528;28;20034;-61
2021/04/27 04:33:45;;;;;;;3.80;1.48;;;1.30;72.80;;;;;;4995763;28;20101;-61
2021/04/27 04:36:11;;;;;;;3.20;1.58;;;1.20;73.10;;;;;;5000196;28;20029;-61
2021/04/27 04:38:36;;;;;;;4.15;1.60;;;1.30;72.90;;;;;;5001620;28;20088;-61
2021/04/27 04:41:02;;;;;;;3.05;1.60;;;1.30;72.80;;;;;;5011700;28;20139;-62
2021/04/27 04:43:28;;;;;;;9.05;1.80;;;1.30;73.30;;;;;;5010798;28;20040;-62
2021/04/27 04:45:54;;;;;;;11.55;5.28;;;1.30;72.70;;;;;;5006509;28;20479;-62
2021/04/27 04:48:20;;;;;;;3.08;1.70;;;1.40;72.70;;;;;;5012507;28;20099;-62
2021/04/27 04:50:46;;;;;;;2.42;1.35;;;1.40;72.50;;;;;;4999897;28;20037;-62
2021/04/27 04:53:12;;;;;;;3.33;1.48;;;1.50;72.80;;;;;;5016822;28;20088;-62
2021/04/27 04:55:37;;;;;;;3.38;1.70;;;1.50;72.80;;;;;;4995789;28;20030;-62
2021/04/27 04:58:04;;;;;;;2.95;1.23;;;1.50;72.50;;;;;;5001294;28;20049;-62
2021/04/27 05:00:30;;;;;;;8.32;1.52;;;1.60;72.30;;;;;;4998195;28;20030;-62
2021/04/27 05:02:55;;;;;;;4.47;1.85;;;1.70;72.00;;;;;;5001841;28;20056;-62
2021/04/27 05:05:21;;;;;;;3.88;1.30;;;1.70;71.80;;;;;;4997441;28;20034;-61
2021/04/27 05:07:57;;;;;;;4.47;1.33;;;1.80;71.50;;;;;;5005714;28;20033;-62
2021/04/27 05:10:23;;;;;;;4.15;1.52;;;1.90;71.30;;;;;;4997950;28;20029;-61
2021/04/27 05:12:49;;;;;;;2.40;1.30;;;1.90;71.40;;;;;;4999999;28;20485;-62
2021/04/27 05:15:14;;;;;;;3.08;1.42;;;1.90;71.60;;;;;;5011592;28;20033;-62
2021/04/27 05:17:40;;;;;;;3.63;1.30;;;2.00;71.30;;;;;;4991700;28;20305;-61
2021/04/27 05:20:07;;;;;;;3.92;1.30;;;2.10;70.80;;;;;;4996463;28;20447;-62
2021/04/27 05:22:32;;;;;;;2.63;1.38;;;2.20;71.40;;;;;;5019191;28;20041;-62
2021/04/27 05:24:58;;;;;;;3.25;1.40;;;2.30;70.10;;;;;;4997665;28;20026;-61
2021/04/27 05:27:24;;;;;;;2.08;1.20;;;2.50;70.20;;;;;;5011143;28;20034;-61
2021/04/27 05:29:51;;;;;;;4.88;1.58;;;2.60;69.50;;;;;;5005111;28;20045;-59
2021/04/27 05:32:16;;;;;;;2.55;1.30;;;2.70;68.60;;;;;;5005837;28;20201;-60
2021/04/27 05:34:42;;;;;;;3.08;1.60;;;2.80;68.40;;;;;;4993165;28;20041;-60
2021/04/27 05:37:08;;;;;;;4.95;1.50;;;2.90;68.00;;;;;;4996565;28;20026;-59
2021/04/27 05:39:34;;;;;;;2.60;1.48;;;3.00;67.10;;;;;;5005397;28;20021;-63
2021/04/27 05:42:00;;;;;;;2.83;1.50;;;3.10;66.80;;;;;;5011520;28;20107;-63
2021/04/27 05:44:26;;;;;;;4.28;1.70;;;3.30;66.90;;;;;;5001325;28;20080;-63
2021/04/27 05:46:52;;;;;;;3.38;1.30;;;3.40;66.70;;;;;;5003766;28;20472;-63
2021/04/27 05:49:17;;;;;;;6.13;1.60;;;3.50;65.50;;;;;;5011819;28;20043;-63
2021/04/27 05:51:43;;;;;;;3.50;1.70;;;3.60;65.70;;;;;;4997109;28;20089;-60
2021/04/27 05:54:09;;;;;;;3.15;1.45;;;3.80;65.10;;;;;;5008126;28;20040;-60
2021/04/27 05:56:35;;;;;;;2.00;1.30;;;4.00;65.50;;;;;;5004483;28;20587;-60
2021/04/27 05:59:02;;;;;;;3.38;1.33;;;4.10;64.40;;;;;;5008092;28;20021;-60
2021/04/27 06:01:27;;;;;;;3.33;1.40;;;4.10;63.50;;;;;;4999691;28;20198;-60
2021/04/27 06:03:53;;;;;;;2.67;1.02;;;4.20;63.70;;;;;;5005260;28;20018;-59
2021/04/27 06:06:19;;;;;;;2.53;1.35;;;4.40;62.90;;;;;;5004631;28;20041;-60
2021/04/27 06:08:45;;;;;;;5.28;1.58;;;4.60;62.20;;;;;;4997731;28;20421;-61
2021/04/27 06:11:11;;;;;;;3.00;1.60;;;4.70;63.10;;;;;;5000946;28;20037;-60
2021/04/27 06:13:36;;;;;;;6.22;1.80;;;4.90;62.10;;;;;;5010470;28;20053;-61
2021/04/27 06:16:03;;;;;;;5.15;1.20;;;5.10;61.50;;;;;;5005160;28;20064;-60
2021/04/27 06:18:29;;;;;;;2.83;1.50;;;5.20;60.90;;;;;;5001001;28;20453;-59
2021/04/27 06:20:55;;;;;;;3.17;1.20;;;5.10;59.10;;;;;;4999933;28;20120;-59
2021/04/27 06:23:20;;;;;;;3.22;1.60;;;5.20;59.40;;;;;;5018369;28;20460;-60
2021/04/27 06:25:46;;;;;;;2.78;1.30;;;5.40;59.20;;;;;;5004695;28;20029;-60
2021/04/27 06:28:14;;;;;;;3.22;1.50;;;5.70;58.70;;;;;;5011503;28;20094;-60
2021/04/27 06:30:43;;;;;;;3.85;1.20;;;5.70;57.20;;;;;;4999729;28;20125;-61
2021/04/27 06:33:09;;;;;;;1.92;1.08;;;6.00;58.10;;;;;;5008021;28;20028;-61
2021/04/27 06:35:35;;;;;;;2.70;1.40;;;6.10;57.90;;;;;;5003189;28;20033;-61
2021/04/27 06:38:01;;;;;;;2.50;1.17;;;6.10;58.00;;;;;;4998008;28;20318;-61
2021/04/27 06:40:27;;;;;;;3.17;1.15;;;6.30;55.00;;;;;;4999001;28;20034;-61
2021/04/27 06:42:53;;;;;;;2.05;1.23;;;6.40;56.60;;;;;;5001298;28;20545;-61
2021/04/27 06:45:19;;;;;;;3.65;1.40;;;6.80;55.40;;;;;;5013182;28;20032;-60
2021/04/27 06:47:46;;;;;;;2.40;1.30;;;6.90;53.40;;;;;;5007197;28;20415;-61
2021/04/27 06:50:13;;;;;;;7.85;1.30;;;7.00;55.40;;;;;;4999591;28;20505;-61
2021/04/27 06:52:38;;;;;;;3.60;1.20;;;7.30;53.10;;;;;;4993418;28;20419;-60
2021/04/27 06:55:05;;;;;;;3.53;1.58;;;7.60;53.50;;;;;;5006413;28;20031;-61
2021/04/27 06:57:31;;;;;;;2.75;1.30;;;7.60;53.40;;;;;;5004647;28;20283;-60
2021/04/27 06:59:57;;;;;;;5.82;1.52;;;7.80;51.00;;;;;;5005703;28;20030;-61
2021/04/27 07:02:23;;;;;;;4.57;1.00;;;7.80;51.10;;;;;;5002338;28;20399;-61
2021/04/27 07:04:48;;;;;;;4.55;1.35;;;7.80;52.00;;;;;;5007035;28;20026;-61
2021/04/27 07:07:14;;;;;;;3.17;1.20;;;8.10;50.30;;;;;;5005049;28;20030;-60
2021/04/27 07:09:40;;;;;;;2.28;1.13;;;8.20;50.50;;;;;;4996654;28;20034;-60
2021/04/27 07:12:06;;;;;;;2.80;1.20;;;8.20;50.30;;;;;;5011149;28;20206;-61
2021/04/27 07:14:32;;;;;;;4.50;1.55;;;8.80;49.20;;;;;;4998991;28;20105;-61
2021/04/27 07:16:57;;;;;;;3.75;1.20;;;8.80;47.50;;;;;;5005382;28;20475;-61
2021/04/27 07:19:23;;;;;;;1.85;1.05;;;9.10;48.10;;;;;;5019515;28;20091;-61
2021/04/27 07:21:51;;;;;;;3.83;1.40;;;8.90;44.90;;;;;;5001183;28;20022;-61
2021/04/27 07:24:16;;;;;;;2.40;1.20;;;9.20;45.90;;;;;;4997128;28;20029;-60
2021/04/27 07:26:45;;;;;;;3.85;1.23;;;9.10;43.10;;;;;;5000252;28;20242;-61
2021/04/27 07:29:10;;;;;;;2.13;1.00;;;9.20;44.70;;;;;;5000350;28;20426;-61
2021/04/27 07:31:38;;;;;;;3.30;1.25;;;9.50;43.40;;;;;;5001104;28;20038;-62
2021/04/27 07:34:04;;;;;;;3.30;1.27;;;9.50;42.10;;;;;;5010639;28;20323;-61
2021/04/27 07:36:29;;;;;;;5.07;1.50;;;9.60;43.10;;;;;;4988107;28;20029;-60
2021/04/27 07:38:55;;;;;;;4.28;1.55;;;10.00;42.30;;;;;;5001972;28;20087;-61
2021/04/27 07:41:21;;;;;;;8.98;1.20;;;9.60;41.50;;;;;;4996800;28;20029;-60
2021/04/27 07:43:46;;;;;;;5.63;1.33;;;9.60;40.70;;;;;;5005690;28;20026;-61
2021/04/27 07:46:12;;;;;;;2.40;1.02;;;9.70;40.90;;;;;;5001621;28;20396;-61
2021/04/27 07:48:38;;;;;;;1.48;1.00;;;9.50;41.40;;;;;;4997277;28;20502;-61
2021/04/27 07:51:04;;;;;;;2.03;0.95;;;9.90;41.60;;;;;;4996868;28;20498;-61
2021/04/27 07:53:29;;;;;;;1.85;1.05;;;10.00;38.90;;;;;;5012101;28;20025;-61
2021/04/27 07:55:55;;;;;;;1.73;0.75;;;10.20;39.90;;;;;;5018559;28;20038;-61
2021/04/27 07:58:21;;;;;;;4.10;1.65;;;10.80;39.80;;;;;;4991385;28;20030;-61
2021/04/27 08:00:46;;;;;;;7.60;1.38;;;10.60;37.70;;;;;;4995204;28;20508;-61
2021/04/27 08:03:12;;;;;;;2.10;1.02;;;10.30;39.80;;;;;;4993636;28;20072;-61
2021/04/27 08:05:38;;;;;;;4.28;1.23;;;10.50;38.70;;;;;;5003092;28;20033;-60
2021/04/27 08:08:04;;;;;;;3.50;1.00;;;10.50;38.10;;;;;;5008473;28;20019;-61
2021/04/27 08:10:30;;;;;;;2.10;1.20;;;10.60;37.90;;;;;;5001766;28;20037;-61
2021/04/27 08:12:56;;;;;;;4.07;1.25;;;10.60;37.40;;;;;;5003193;28;20040;-61
2021/04/27 08:15:27;;;;;;;1.60;0.90;;;10.60;37.80;;;;;;4994800;28;20034;-61
2021/04/27 08:17:55;;;;;;;2.65;1.02;;;10.60;38.00;;;;;;4992295;28;20026;-61
2021/04/27 08:20:21;;;;;;;3.13;1.30;;;10.90;37.40;;;;;;4997252;28;20034;-61
2021/04/27 08:22:48;;;;;;;3.00;1.00;;;11.30;38.30;;;;;;4999520;28;20499;-61
2021/04/27 08:25:14;;;;;;;2.45;1.23;;;10.60;37.20;;;;;;5002650;28;20475;-61
2021/04/27 08:27:43;;;;;;;2.25;0.90;;;10.80;37.10;;;;;;5021898;28;20037;-61
2021/04/27 08:30:10;;;;;;;4.00;0.95;;;11.00;35.50;;;;;;5002960;28;20061;-61
2021/04/27 08:32:36;;;;;;;5.93;1.00;;;10.70;36.40;;;;;;5003614;28;20056;-61
2021/04/27 08:35:03;;;;;;;6.38;1.40;;;10.10;37.20;;;;;;4999165;28;20622;-61
2021/04/27 08:37:29;;;;;;;2.47;1.08;;;10.70;38.00;;;;;;5006094;28;20023;-61
2021/04/27 08:39:55;;;;;;;2.33;1.10;;;11.10;36.40;;;;;;5000792;28;20085;-61
2021/04/27 08:42:21;;;;;;;1.83;1.02;;;11.00;36.00;;;;;;4997564;28;20992;-61
2021/04/27 08:44:47;;;;;;;1.58;1.05;;;11.20;35.50;;;;;;5012081;28;20037;-61
2021/04/27 08:47:13;;;;;;;3.70;1.20;;;11.50;35.80;;;;;;4996693;28;20042;-61
2021/04/27 08:49:39;;;;;;;1.98;0.90;;;11.40;34.90;;;;;;4994563;28;20052;-61
2021/04/27 08:52:05;;;;;;;3.47;1.13;;;11.40;34.00;;;;;;5004775;28;20476;-61
2021/04/27 08:54:32;;;;;;;6.05;1.48;;;11.50;36.00;;;;;;5003867;28;20045;-61
2021/04/27 08:56:58;;;;;;;2.50;1.00;;;12.40;34.20;;;;;;5005893;28;20145;-61
2021/04/27 08:59:23;;;;;;;4.55;1.20;;;11.80;33.50;;;;;;5000837;28;20030;-61
2021/04/27 09:01:49;;;;;;;4.30;1.35;;;11.70;33.50;;;;;;4999821;28;20169;-61
2021/04/27 09:04:45;;;;;;;2.35;1.25;;;11.90;33.80;;;;;;5010507;28;20087;-61
2021/04/27 09:07:16;;;;;;;1.83;1.00;;;11.80;34.40;;;;;;4998343;28;20465;-61
2021/04/27 09:09:45;;;;;;;3.45;1.20;;;12.40;33.10;;;;;;5011644;28;20037;-61
2021/04/27 09:12:12;;;;;;;4.10;1.20;;;11.70;33.50;;;;;;5015460;28;20383;-61
2021/04/27 09:14:40;;;;;;;3.15;1.13;;;12.50;32.70;;;;;;5007352;28;20465;-61
2021/04/27 09:17:09;;;;;;;2.67;1.20;;;12.00;32.40;;;;;;5002489;28;20020;-60
2021/04/27 09:19:45;;;;;;;2.75;1.17;;;12.40;32.50;;;;;;4994251;28;20062;-61
2021/04/27 09:22:33;;;;;;;2.58;1.10;;;12.50;33.00;;;;;;5003732;28;20502;-61
2021/04/27 09:25:01;;;;;;;2.35;1.10;;;12.10;32.80;;;;;;5009464;28;20029;-61
2021/04/27 09:27:34;;;;;;;1.83;1.05;;;12.60;33.50;;;;;;5002983;28;20026;-61
2021/04/27 09:30:22;;;;;;;3.28;1.20;;;12.70;32.60;;;;;;4996625;28;20273;-61
2021/04/27 09:33:04;;;;;;;3.08;1.40;;;12.40;32.40;;;;;;5002316;28;20036;-61
2021/04/27 09:35:35;;;;;;;2.45;1.15;;;12.80;32.80;;;;;;5002466;28;20034;-61
2021/04/27 09:38:07;;;;;;;;;;;13.00;32.10;;;;;;5003070;28;20035;-61
2021/04/27 09:40:42;;;;;;;5.50;1.20;;;13.10;31.50;;;;;;5000120;28;19991;-61
2021/04/27 09:43:08;;;;;;;3.90;1.20;;;12.80;30.90;;;;;;4990947;28;20311;-61
2021/04/27 09:45:45;;;;;;;2.88;1.02;;;13.10;29.90;;;;;;5001056;28;20030;-61
2021/04/27 09:48:11;;;;;;;1.92;0.82;;;13.30;30.00;;;;;;4988678;28;20189;-61
2021/04/27 09:50:38;;;;;;;2.10;1.20;;;14.00;30.50;;;;;;5008998;28;20289;-61
2021/04/27 09:53:05;;;;;;;2.25;1.00;;;13.30;28.60;;;;;;4999186;28;20041;-61
2021/04/27 09:55:31;;;;;;;3.03;1.25;;;13.00;29.80;;;;;;5005220;28;20103;-61
2021/04/27 09:57:58;;;;;;;2.00;1.00;;;12.60;32.60;;;;;;5007205;28;20037;-61
2021/04/27 10:00:33;;;;;;;2.40;1.00;;;12.70;31.10;;;;;;5005334;28;20030;-61
2021/04/27 10:03:03;;;;;;;2.67;1.20;;;13.00;29.70;;;;;;5004203;28;20057;-61
2021/04/27 10:05:29;;;;;;;4.13;1.30;;;13.20;30.70;;;;;;5003594;28;20053;-61
2021/04/27 10:07:58;;;;;;;2.75;1.30;;;12.70;30.70;;;;;;5005317;28;20037;-61
2021/04/27 10:10:25;;;;;;;1.90;1.00;;;12.80;30.70;;;;;;5009686;28;20169;-61
2021/04/27 10:12:51;;;;;;;3.53;1.20;;;13.10;30.40;;;;;;5012923;28;20398;-61
2021/04/27 10:15:17;;;;;;;3.13;1.10;;;12.90;30.00;;;;;;4996962;28;20030;-61
2021/04/27 10:17:43;;;;;;;3.85;1.35;;;12.80;30.30;;;;;;4991516;28;20476;-61
2021/04/27 10:20:13;;;;;;;2.78;1.10;;;12.60;30.80;;;;;;4999206;28;20549;-61
2021/04/27 10:22:47;;;;;;;2.45;1.27;;;13.30;31.30;;;;;;5003937;28;20288;-61
2021/04/27 10:25:17;;;;;;;2.05;0.93;;;13.80;30.50;;;;;;5001371;28;20087;-61
2021/04/27 10:27:43;;;;;;;3.47;1.13;;;13.70;29.30;;;;;;4993141;28;20081;-61
2021/04/27 10:30:18;;;;;;;2.78;1.08;;;13.60;29.00;;;;;;5007546;28;20088;-61
2021/04/27 10:33:02;;;;;;;3.42;1.05;;;13.60;29.50;;;;;;5016439;28;20041;-61
2021/04/27 10:35:33;;;;;;;3.78;1.00;;;13.50;30.80;;;;;;4993708;28;20060;-63
2021/04/27 10:38:11;;;;;;;2.78;1.27;;;13.10;31.90;;;;;;5018374;28;20024;-64
2021/04/27 10:40:48;;;;;;;1.95;1.00;;;13.70;28.90;;;;;;5010854;28;20052;-64
2021/04/27 10:43:26;;;;;;;5.90;1.08;;;13.40;29.90;;;;;;5011860;28;20043;-64
2021/04/27 10:45:52;;;;;;;1.55;1.00;;;12.90;29.50;;;;;;5010928;28;20124;-63
2021/04/27 10:48:33;;;;;;;4.10;1.20;;;13.20;29.20;;;;;;5013076;28;20489;-64
2021/04/27 10:51:23;;;;;;;2.88;0.80;;;13.80;29.50;;;;;;4993828;28;20033;-64
2021/04/27 10:54:06;;;;;;;1.95;1.05;;;14.50;28.90;;;;;;5000461;28;20121;-64
2021/04/27 10:57:00;;;;;;;3.25;1.00;;;14.50;29.90;;;;;;5018223;28;20105;-64
2021/04/27 10:59:32;;;;;;;3.35;1.00;;;14.00;30.00;;;;;;4987465;28;20046;-64
2021/04/27 11:02:11;;;;;;;2.15;0.77;;;14.20;29.00;;;;;;5015019;28;20098;-64
2021/04/27 11:04:45;;;;;;;2.05;1.10;;;14.50;28.10;;;;;;5000036;28;20026;-64
2021/04/27 11:07:19;;;;;;;2.45;0.90;;;14.60;28.40;;;;;;5015415;28;20018;-64
2021/04/27 11:10:01;;;;;;;2.53;1.08;;;14.60;27.90;;;;;;4997822;28;20105;-64
2021/04/27 11:12:33;;;;;;;3.45;1.05;;;14.60;28.50;;;;;;5000734;28;20551;-64
2021/04/27 11:15:10;;;;;;;1.95;0.90;;;14.90;28.50;;;;;;4997941;28;20033;-64
2021/04/27 11:17:39;;;;;;;4.03;1.15;;;15.00;29.00;;;;;;5013368;28;20041;-64
2021/04/27 11:20:09;;;;;;;1.35;0.77;;;15.80;29.10;;;;;;5002939;28;20037;-64
2021/04/27 11:22:36;;;;;;;1.42;0.90;;;16.00;27.50;;;;;;5011255;28;20073;-64
2021/04/27 11:25:07;;;;;;;3.10;0.75;;;15.40;28.40;;;;;;4996264;28;20030;-64
2021/04/27 11:27:35;;;;;;;1.80;0.80;;;15.00;28.30;;;;;;5010603;28;20069;-64
2021/04/27 11:30:03;;;;;;;3.15;1.10;;;14.90;28.00;;;;;;4995606;28;20036;-64
2021/04/27 11:32:31;;;;;;;4.03;1.00;;;15.00;29.20;;;;;;4994425;28;20095;-63
2021/04/27 11:35:09;;;;;;;3.53;1.02;;;15.40;27.80;;;;;;4999105;28;20030;-64
2021/04/27 11:37:47;;;;;;;2.42;0.80;;;15.60;27.50;;;;;;5012744;28;20033;-63
2021/04/27 11:40:15;;;;;;;2.50;1.08;;;15.90;27.50;;;;;;4996456;28;20036;-64
2021/04/27 11:42:40;;;;;;;2.33;1.00;;;15.80;27.70;;;;;;5001269;28;20491;-64
2021/04/27 11:45:13;;;;;;;2.45;1.05;;;16.10;26.60;;;;;;5002433;28;20037;-64
2021/04/27 11:47:42;;;;;;;3.13;1.02;;;15.80;26.50;;;;;;5002925;28;20069;-64
2021/04/27 11:50:12;;;;;;;1.02;0.80;;;15.80;27.20;;;;;;5005283;28;20025;-63
2021/04/27 11:52:50;;;;;;;4.82;1.08;;;16.20;26.70;;;;;;5002616;28;20376;-63
2021/04/27 11:55:21;;;;;;;3.22;0.93;;;16.30;26.30;;;;;;5000889;28;20033;-63
2021/04/27 11:58:35;;;;;;;2.83;0.80;;;15.30;25.70;;;;;;5005861;28;20026;-63
2021/04/27 12:01:03;;;;;;;3.50;0.98;;;15.60;26.70;;;;;;4996210;28;20037;-63
2021/04/27 12:03:34;;;;;;;3.53;0.95;;;16.00;26.20;;;;;;4967265;28;20796;-63
2021/04/27 12:06:06;;;;;;;3.55;1.17;;;17.40;26.50;;;;;;4994844;28;20402;-62
2021/04/27 12:08:37;;;;;;;1.45;0.95;;;17.00;25.30;;;;;;4998467;28;20449;-63
2021/04/27 12:11:30;;;;;;;3.80;1.05;;;17.50;24.90;;;;;;4994315;28;20482;-63
2021/04/27 12:14:09;;;;;;;3.45;1.02;;;17.30;25.00;;;;;;4999665;28;20499;-63
2021/04/27 12:16:53;;;;;;;2.50;1.00;;;17.30;24.10;;;;;;4997870;28;20041;-63
2021/04/27 12:19:23;;;;;;;2.25;1.05;;;18.00;25.60;;;;;;4998630;28;20482;-63
2021/04/27 12:21:59;;;;;;;0.80;0.70;;;17.70;25.20;;;;;;4995847;28;20030;-63
2021/04/27 12:24:30;;;;;;;2.47;1.10;;;18.00;24.50;;;;;;4995125;28;20030;-63
2021/04/27 12:26:55;;;;;;;;;;;17.30;23.70;;;;;;4997306;28;20041;-63
2021/04/27 12:29:26;;;;;;;5.75;1.10;;;17.70;24.50;;;;;;4988126;28;20124;-62
2021/04/27 12:31:52;;;;;;;4.93;1.25;;;16.40;24.90;;;;;;4992109;28;20026;-62
2021/04/27 12:34:17;;;;;;;2.05;1.00;;;18.00;25.00;;;;;;4997413;28;20061;-63
2021/04/27 12:36:49;;;;;;;2.95;1.17;;;17.80;24.50;;;;;;4999412;28;21426;-63
2021/04/27 12:39:23;;;;;;;2.17;0.93;;;16.80;25.90;;;;;;5000413;28;20033;-64
2021/04/27 12:41:51;;;;;;;2.20;0.95;;;15.50;28.20;;;;;;4993619;28;20061;-63
2021/04/27 12:44:33;;;;;;;3.97;1.20;;;15.90;25.20;;;;;;4987857;28;20827;-63
2021/04/27 12:47:02;;;;;;;4.82;1.30;;;17.10;25.40;;;;;;4988391;28;20034;-63
2021/04/27 12:49:31;;;;;;;2.78;1.30;;;17.10;25.10;;;;;;4994527;28;20542;-63
2021/04/27 12:52:04;;;;;;;5.00;1.25;;;17.00;24.00;;;;;;5012482;28;20034;-63
2021/04/27 12:54:31;;;;;;;1.90;1.10;;;17.30;23.20;;;;;;5003620;28;20049;-63
2021/04/27 12:57:11;;;;;;;2.25;1.00;;;17.00;23.40;;;;;;5006611;28;20260;-64
2021/04/27 12:59:38;;;;;;;2.83;1.02;;;17.60;24.50;;;;;;4998465;28;20489;-63